createdAt,value
2019-04-11T00:15:42.519Z,99.90
2019-04-11T00:22:35.700Z,99.90
2019-04-11T00:25:25.404Z,99.90
2019-04-11T00:28:41.994Z,99.90
2019-04-11T00:31:18.958Z,99.90
2019-04-11T00:37:25.921Z,99.90
2019-04-11T00:39:56.302Z,99.90
2019-04-11T00:42:26.205Z,99.90
2019-04-11T00:44:56.991Z,99.90
2019-04-11T00:47:26.579Z,99.90
2019-04-11T00:49:56.843Z,99.90
2019-04-11T00:52:27.438Z,99.90
2019-04-11T00:54:57.395Z,99.90
2019-04-11T00:57:27.112Z,99.90
2019-04-11T00:59:56.546Z,99.90
2019-04-11T01:02:25.943Z,99.90
2019-04-11T01:04:55.520Z,99.90
2019-04-11T01:07:25.524Z,99.90
2019-04-11T01:09:55.005Z,99.90
2019-04-11T01:12:25.065Z,99.90
2019-04-11T01:14:55.434Z,99.90
2019-04-11T01:17:27.618Z,99.90
2019-04-11T01:19:57.357Z,99.90
2019-04-11T01:22:26.991Z,99.90
2019-04-11T01:24:56.354Z,99.90
2019-04-11T01:27:26.102Z,99.90
2019-04-11T01:29:55.724Z,99.90
2019-04-11T01:32:26.345Z,99.90
2019-04-11T01:34:57.079Z,99.90
2019-04-11T01:37:27.982Z,99.90
2019-04-11T01:39:59.468Z,99.90
2019-04-11T01:42:29.259Z,99.90
2019-04-11T01:44:58.516Z,99.90
2019-04-11T01:47:53.128Z,99.90
2019-04-11T01:53:41.002Z,99.90
2019-04-11T01:56:11.347Z,99.90
2019-04-11T01:58:41.096Z,99.90
2019-04-11T02:01:33.013Z,99.90
2019-04-11T02:04:30.281Z,99.90
2019-04-11T02:07:00.377Z,99.90
2019-04-11T02:09:30.408Z,99.90
2019-04-11T02:12:01.663Z,99.90
2019-04-11T02:14:31.600Z,99.90
2019-04-11T02:17:01.664Z,99.90
2019-04-11T02:19:32.155Z,99.90
2019-04-11T02:22:30.519Z,99.90
2019-04-11T02:25:09.424Z,99.90
2019-04-11T02:27:40.149Z,99.90
2019-04-11T02:30:11.195Z,99.90
2019-04-11T02:32:42.856Z,99.90
2019-04-11T02:35:13.414Z,99.90
2019-04-11T02:37:44.418Z,99.90
2019-04-11T02:40:15.421Z,99.90
2019-04-11T02:42:45.649Z,99.90
2019-04-11T02:45:29.008Z,99.90
2019-04-11T02:47:48.751Z,99.90
2019-04-11T02:50:21.971Z,99.90
2019-04-11T02:52:52.694Z,99.90
2019-04-11T02:55:22.268Z,99.90
2019-04-11T02:57:51.771Z,99.90
2019-04-11T03:00:24.415Z,99.90
2019-04-11T03:02:54.299Z,99.90
2019-04-11T03:05:24.640Z,99.90
2019-04-11T03:07:54.260Z,99.90
2019-04-11T03:10:24.928Z,99.90
2019-04-11T03:12:56.815Z,99.90
2019-04-11T03:15:42.981Z,99.90
2019-04-11T03:18:02.012Z,99.90
2019-04-11T03:20:37.138Z,99.90
2019-04-11T03:23:07.552Z,99.90
2019-04-11T03:25:33.911Z,99.90
2019-04-11T03:28:03.289Z,99.90
2019-04-11T03:30:54.048Z,99.90
2019-04-11T03:38:36.937Z,99.90
2019-04-11T03:40:56.750Z,99.90
2019-04-11T03:43:28.180Z,99.90
2019-04-11T03:46:06.722Z,99.90
2019-04-11T03:48:30.646Z,99.90
2019-04-11T03:50:50.908Z,99.90
2019-04-11T03:53:21.496Z,99.90
2019-04-11T03:55:51.629Z,99.90
2019-04-11T03:58:21.789Z,99.90
2019-04-11T04:00:54.748Z,99.90
2019-04-11T04:03:24.574Z,99.90
2019-04-11T04:05:55.793Z,99.90
2019-04-11T04:08:27.573Z,99.90
2019-04-11T04:11:16.661Z,99.90
2019-04-11T04:13:54.053Z,99.90
2019-04-11T04:16:51.023Z,99.90
2019-04-11T04:19:31.069Z,99.90
2019-04-11T04:22:08.781Z,99.90
2019-04-11T04:24:45.467Z,99.90
2019-04-11T04:27:15.515Z,99.90
2019-04-11T04:29:49.010Z,99.90
2019-04-11T04:32:16.350Z,99.90
2019-04-11T04:34:46.433Z,99.90
2019-04-11T04:37:18.087Z,99.90
2019-04-11T04:39:50.163Z,99.90
2019-04-11T04:42:30.020Z,99.90
2019-04-11T04:44:51.089Z,99.90
2019-04-11T04:47:30.424Z,99.90
2019-04-11T04:49:54.194Z,99.90
2019-04-11T04:52:25.268Z,99.90
2019-04-11T04:54:55.596Z,99.90
2019-04-11T04:57:26.750Z,99.90
2019-04-11T04:59:57.737Z,99.90
2019-04-11T05:02:30.288Z,99.90
2019-04-11T05:05:01.375Z,99.90
2019-04-11T05:07:34.627Z,99.90
2019-04-11T05:10:03.231Z,99.90
2019-04-11T05:12:34.456Z,99.90
2019-04-11T05:15:05.961Z,99.90
2019-04-11T05:17:36.323Z,99.90
2019-04-11T05:20:06.947Z,99.90
2019-04-11T05:22:39.381Z,99.90
2019-04-11T05:25:10.543Z,99.90
2019-04-11T05:27:40.158Z,99.90
2019-04-11T05:30:11.158Z,99.90
2019-04-11T05:32:41.658Z,99.90
2019-04-11T05:35:11.148Z,99.90
2019-04-11T05:37:40.492Z,99.90
2019-04-11T05:40:10.744Z,99.90
2019-04-11T05:42:40.303Z,99.90
2019-04-11T05:45:15.703Z,99.90
2019-04-11T05:47:40.577Z,99.90
2019-04-11T05:50:29.178Z,99.90
2019-04-11T05:53:03.438Z,99.90
2019-04-11T05:55:34.225Z,99.90
2019-04-11T05:58:08.646Z,99.90
2019-04-11T06:01:01.748Z,99.90
2019-04-11T06:03:32.230Z,99.90
2019-04-11T06:06:20.274Z,99.90
2019-04-11T06:08:50.212Z,99.90
2019-04-11T06:11:43.115Z,99.90
2019-04-11T06:14:28.749Z,99.90
2019-04-11T06:17:01.856Z,99.90
2019-04-11T06:19:50.053Z,99.90
2019-04-11T06:22:19.876Z,99.90
2019-04-11T06:25:19.238Z,99.90
2019-04-11T06:27:53.993Z,99.90
2019-04-11T06:30:44.412Z,99.90
2019-04-11T06:33:20.593Z,99.90
2019-04-11T06:36:00.181Z,99.90
2019-04-11T06:38:49.271Z,99.90
2019-04-11T06:41:46.643Z,99.90
2019-04-11T06:44:44.039Z,99.90
2019-04-11T06:47:40.980Z,99.90
2019-04-11T06:50:31.333Z,99.90
2019-04-11T06:53:02.318Z,99.90
2019-04-11T06:56:00.598Z,99.90
2019-04-11T06:58:37.350Z,99.90
2019-04-11T07:01:13.984Z,99.90
2019-04-11T07:03:53.296Z,99.90
2019-04-11T07:06:27.466Z,99.90
2019-04-11T07:09:07.407Z,99.90
2019-04-11T07:11:59.273Z,99.90
2019-04-11T07:14:35.367Z,99.90
2019-04-11T07:17:23.013Z,99.90
2019-04-11T07:20:27.250Z,99.90
2019-04-11T07:23:13.936Z,99.90
2019-04-11T07:26:00.316Z,99.90
2019-04-11T07:28:52.280Z,99.90
2019-04-11T07:31:58.688Z,99.90
2019-04-11T07:34:56.550Z,99.90
2019-04-11T07:37:42.342Z,99.90
2019-04-11T07:40:33.309Z,99.90
2019-04-11T07:43:29.096Z,99.90
2019-04-11T07:46:24.979Z,99.90
2019-04-11T07:49:05.902Z,99.90
2019-04-11T07:51:45.054Z,99.90
2019-04-11T07:54:23.024Z,99.90
2019-04-11T07:57:06.252Z,99.90
2019-04-11T07:59:55.565Z,99.90
2019-04-11T08:02:59.698Z,99.90
2019-04-11T08:05:46.738Z,99.90
2019-04-11T08:08:34.972Z,99.90
2019-04-11T08:11:17.822Z,99.90
2019-04-11T08:14:06.419Z,99.90
2019-04-11T08:16:59.991Z,99.90
2019-04-11T08:19:47.009Z,99.90
2019-04-11T08:22:29.212Z,99.90
2019-04-11T08:25:09.122Z,99.90
2019-04-11T08:27:51.881Z,99.90
2019-04-11T08:30:14.921Z,99.90
2019-04-11T08:32:47.860Z,99.90
2019-04-11T08:35:40.179Z,99.90
2019-04-11T08:38:16.218Z,99.90
2019-04-11T08:41:07.383Z,99.90
2019-04-11T08:43:37.406Z,99.90
2019-04-11T08:46:16.969Z,99.90
2019-04-11T08:48:49.459Z,99.90
2019-04-11T08:51:19.159Z,99.90
2019-04-11T08:54:19.547Z,99.90
2019-04-11T08:56:49.425Z,99.90
2019-04-11T08:59:44.566Z,99.90
2019-04-11T09:02:20.622Z,99.90
2019-04-11T09:05:07.027Z,99.90
2019-04-11T09:07:39.523Z,99.90
2019-04-11T09:10:26.360Z,99.90
2019-04-11T09:13:09.047Z,99.90
2019-04-11T09:15:55.893Z,99.90
2019-04-11T09:18:25.990Z,99.90
2019-04-11T09:21:24.196Z,99.90
2019-04-11T09:23:54.303Z,99.90
2019-04-11T09:26:45.469Z,99.90
2019-04-11T09:29:15.608Z,99.90
2019-04-11T09:32:07.695Z,99.90
2019-04-11T09:34:54.251Z,99.90
2019-04-11T09:37:35.989Z,99.90
2019-04-11T09:40:26.283Z,99.90
2019-04-11T09:43:13.563Z,99.90
2019-04-11T09:46:04.535Z,99.90
2019-04-11T09:48:53.826Z,99.90
2019-04-11T09:51:51.981Z,99.90
2019-04-11T09:54:56.787Z,99.90
2019-04-11T09:57:37.659Z,99.90
2019-04-11T10:09:24.132Z,99.90
2019-04-11T10:12:11.695Z,99.90
2019-04-11T10:14:45.962Z,99.90
2019-04-11T10:17:46.526Z,99.90
2019-04-11T10:20:18.375Z,99.90
2019-04-11T10:23:10.583Z,99.90
2019-04-11T10:25:47.620Z,99.90
2019-04-11T10:28:40.416Z,99.90
2019-04-11T10:31:14.721Z,99.90
2019-04-11T10:34:18.104Z,99.90
2019-04-11T10:37:07.518Z,99.90
2019-04-11T10:39:59.827Z,99.90
2019-04-11T10:42:30.679Z,99.90
2019-04-11T10:45:25.059Z,99.90
2019-04-11T10:48:13.917Z,99.90
2019-04-11T10:51:20.586Z,99.90
2019-04-11T10:53:55.450Z,99.90
2019-04-11T10:56:44.235Z,99.90
2019-04-11T10:59:15.390Z,99.90
2019-04-11T11:02:02.480Z,99.90
2019-04-11T11:04:45.056Z,99.90
2019-04-11T11:07:26.724Z,99.90
2019-04-11T11:10:09.258Z,99.90
2019-04-11T11:12:49.638Z,99.90
2019-04-11T11:15:25.403Z,99.90
2019-04-11T11:18:38.181Z,99.90
2019-04-11T11:20:54.379Z,99.90
2019-04-11T11:23:37.358Z,99.90
2019-04-11T11:26:22.623Z,99.90
2019-04-11T11:29:15.776Z,99.90
2019-04-11T11:32:00.824Z,99.90
2019-04-11T11:34:34.712Z,99.90
2019-04-11T11:37:39.565Z,99.90
2019-04-11T11:40:44.748Z,99.90
2019-04-11T11:43:21.155Z,99.90
2019-04-11T11:46:08.081Z,99.90
2019-04-11T11:48:47.278Z,99.90
2019-04-11T11:51:33.278Z,99.90
2019-04-11T11:54:07.171Z,99.90
2019-04-11T11:56:38.101Z,99.90
2019-04-11T11:59:32.489Z,99.90
2019-04-11T12:02:06.339Z,99.70
2019-04-11T12:05:07.893Z,99.50
2019-04-11T12:07:39.440Z,99.90
2019-04-11T12:10:39.571Z,99.90
2019-04-11T12:13:40.710Z,99.90
2019-04-11T12:16:23.766Z,98.90
2019-04-11T12:19:02.510Z,98.70
2019-04-11T12:21:34.579Z,99.90
2019-04-11T12:24:29.064Z,99.30
2019-04-11T12:27:27.243Z,99.90
2019-04-11T12:30:13.430Z,99.50
2019-04-11T12:32:48.703Z,99.90
2019-04-11T12:35:38.003Z,98.30
2019-04-11T12:38:13.371Z,98.00
2019-04-11T12:41:00.310Z,97.70
2019-04-11T12:43:44.432Z,98.60
2019-04-11T12:46:31.102Z,97.50
2019-04-11T12:49:08.924Z,98.00
2019-04-11T12:51:57.196Z,97.60
2019-04-11T12:54:29.330Z,98.00
2019-04-11T12:57:17.595Z,98.80
2019-04-11T12:59:48.282Z,95.60
2019-04-11T13:02:31.904Z,95.70
2019-04-11T13:05:02.111Z,96.30
2019-04-11T13:07:55.655Z,95.20
2019-04-11T13:10:32.768Z,96.40
2019-04-11T13:13:24.102Z,95.80
2019-04-11T13:16:13.911Z,97.90
2019-04-11T13:19:14.333Z,95.70
2019-04-11T13:22:08.693Z,95.40
2019-04-11T13:25:06.315Z,95.10
2019-04-11T13:27:45.429Z,96.80
2019-04-11T13:30:42.550Z,94.40
2019-04-11T13:33:14.623Z,95.20
2019-04-11T13:35:58.303Z,94.40
2019-04-11T13:38:30.822Z,94.00
2019-04-11T13:41:20.417Z,93.80
2019-04-11T13:43:56.128Z,95.50
2019-04-11T13:46:46.782Z,96.20
2019-04-11T13:49:34.118Z,96.40
2019-04-11T13:52:22.525Z,94.80
2019-04-11T13:55:02.373Z,95.20
2019-04-11T13:57:56.459Z,94.10
2019-04-11T14:01:03.200Z,93.10
2019-04-11T14:04:00.201Z,95.20
2019-04-11T14:06:30.977Z,94.60
2019-04-11T14:09:24.998Z,94.90
2019-04-11T14:11:59.110Z,95.00
2019-04-11T14:14:47.193Z,95.10
2019-04-11T14:17:27.393Z,95.10
2019-04-11T14:20:30.925Z,94.80
2019-04-11T14:23:17.781Z,94.90
2019-04-11T14:26:24.201Z,94.50
2019-04-11T14:29:24.615Z,94.70
2019-04-11T14:32:00.183Z,94.90
2019-04-11T14:34:47.132Z,93.90
2019-04-11T14:37:54.956Z,94.20
2019-04-11T14:41:01.187Z,94.70
2019-04-11T14:43:26.857Z,94.80
2019-04-11T14:46:22.860Z,95.10
2019-04-11T14:48:54.971Z,95.10
2019-04-11T14:51:46.838Z,95.00
2019-04-11T14:54:18.768Z,93.80
2019-04-11T14:56:53.466Z,94.30
2019-04-11T14:59:43.464Z,95.30
2019-04-11T15:02:27.703Z,95.40
2019-04-11T15:05:06.615Z,95.20
2019-04-11T15:07:36.850Z,95.00
2019-04-11T15:10:29.643Z,96.10
2019-04-11T15:12:59.716Z,94.60
2019-04-11T15:15:47.987Z,95.50
2019-04-11T15:18:19.833Z,95.30
2019-04-11T15:21:13.864Z,95.30
2019-04-11T15:23:47.913Z,94.70
2019-04-11T15:26:36.628Z,95.40
2019-04-11T15:29:13.839Z,96.00
2019-04-11T15:32:02.101Z,95.60
2019-04-11T15:34:37.539Z,96.50
2019-04-11T15:37:44.972Z,96.00
2019-04-11T15:40:20.983Z,96.10
2019-04-11T15:42:54.841Z,96.50
2019-04-11T15:45:39.212Z,97.10
2019-04-11T15:48:27.483Z,97.40
2019-04-11T15:51:35.146Z,97.20
2019-04-11T15:54:26.441Z,96.90
2019-04-11T15:57:26.812Z,97.30
2019-04-11T16:00:17.778Z,97.90
2019-04-11T16:02:56.069Z,97.70
2019-04-11T16:05:50.338Z,97.80
2019-04-11T16:08:39.490Z,97.80
2019-04-11T16:11:25.299Z,98.20
2019-04-11T16:14:12.988Z,98.20
2019-04-11T16:17:16.265Z,98.10
2019-04-11T16:19:48.595Z,98.00
2019-04-11T16:22:45.974Z,98.50
2019-04-11T16:25:17.510Z,98.10
2019-04-11T16:28:11.727Z,98.40
2019-04-11T16:30:43.464Z,97.80
2019-04-11T16:33:35.105Z,98.40
2019-04-11T16:36:11.099Z,98.10
2019-04-11T16:38:46.910Z,98.30
2019-04-11T16:41:35.065Z,98.70
2019-04-11T16:44:07.127Z,98.50
2019-04-11T16:46:55.538Z,98.60
2019-04-11T16:49:25.967Z,98.90
2019-04-11T16:51:55.844Z,99.10
2019-04-11T16:54:26.471Z,99.20
2019-04-11T16:56:57.389Z,99.30
2019-04-11T16:59:26.868Z,99.40
2019-04-11T17:01:56.146Z,99.10
2019-04-11T17:04:25.969Z,99.40
2019-04-11T17:07:05.284Z,99.40
2019-04-11T17:09:41.135Z,99.60
2019-04-11T17:12:10.653Z,99.50
2019-04-11T17:14:40.057Z,99.90
2019-04-11T17:17:14.913Z,99.90
2019-04-11T17:19:40.599Z,99.90
2019-04-11T17:22:09.976Z,99.90
2019-04-11T17:24:39.218Z,99.90
2019-04-11T17:27:08.627Z,99.90
2019-04-11T17:29:37.955Z,99.90
2019-04-11T17:32:07.284Z,99.90
2019-04-11T17:34:36.732Z,99.90
2019-04-11T17:37:06.057Z,99.90
2019-04-11T17:39:36.824Z,99.90
2019-04-11T17:42:06.713Z,99.90
2019-04-11T17:44:37.269Z,99.90
2019-04-11T17:47:06.687Z,99.90
2019-04-11T17:49:36.206Z,99.60
2019-04-11T17:52:06.836Z,99.60
2019-04-11T17:54:36.105Z,99.20
2019-04-11T17:57:05.547Z,99.30
2019-04-11T17:59:37.624Z,99.00
2019-04-11T18:02:10.385Z,98.80
2019-04-11T18:04:44.036Z,99.60
2019-04-11T18:07:12.463Z,99.00
2019-04-11T18:09:41.755Z,99.20
2019-04-11T18:12:10.971Z,99.30
2019-04-11T18:14:40.630Z,98.90
2019-04-11T18:17:09.915Z,98.70
2019-04-11T18:19:40.118Z,98.60
2019-04-11T18:22:13.423Z,98.50
2019-04-11T18:24:40.337Z,98.50
2019-04-11T18:27:09.724Z,98.60
2019-04-11T18:29:39.298Z,98.30
2019-04-11T18:32:08.572Z,98.50
2019-04-11T18:34:39.073Z,98.40
2019-04-11T18:37:08.536Z,98.30
2019-04-11T18:39:38.006Z,98.50
2019-04-11T18:42:13.653Z,98.70
2019-04-11T18:44:43.269Z,98.70
2019-04-11T18:47:12.748Z,98.50
2019-04-11T18:49:42.316Z,98.60
2019-04-11T18:52:19.633Z,98.70
2019-04-11T18:54:42.752Z,98.80
2019-04-11T18:57:12.713Z,98.70
2019-04-11T18:59:42.092Z,99.00
2019-04-11T19:02:11.655Z,99.10
2019-04-11T19:04:42.258Z,99.10
2019-04-11T19:07:13.341Z,99.60
2019-04-11T19:09:43.865Z,99.60
2019-04-11T19:12:15.951Z,99.40
2019-04-11T19:14:46.566Z,99.90
2019-04-11T19:17:18.417Z,99.90
2019-04-11T19:19:48.951Z,99.60
2019-04-11T19:22:20.797Z,99.50
2019-04-11T19:24:49.641Z,99.70
2019-04-11T19:27:20.507Z,99.80
2019-04-11T19:29:50.060Z,99.90
2019-04-11T19:32:20.501Z,99.90
2019-04-11T19:34:49.827Z,99.90
2019-04-11T19:37:19.095Z,99.90
2019-04-11T19:39:48.545Z,99.80
2019-04-11T19:42:19.642Z,99.80
2019-04-11T19:44:49.665Z,99.90
2019-04-11T19:47:21.710Z,99.80
2019-04-11T19:49:50.823Z,99.70
2019-04-11T19:52:20.152Z,99.60
2019-04-11T19:54:49.909Z,99.70
2019-04-11T19:57:19.300Z,99.60
2019-04-11T19:59:48.519Z,99.70
2019-04-11T20:02:17.768Z,99.90
2019-04-11T20:04:47.483Z,99.90
2019-04-11T20:07:16.811Z,99.90
2019-04-11T20:09:46.080Z,99.90
2019-04-11T20:12:15.587Z,99.90
2019-04-11T20:14:44.881Z,99.90
2019-04-11T20:17:14.273Z,99.90
2019-04-11T20:19:43.882Z,99.90
2019-04-11T20:22:13.325Z,99.90
2019-04-11T20:24:45.972Z,99.90
2019-04-11T20:27:14.071Z,99.90
2019-04-11T20:29:43.505Z,99.90
2019-04-11T20:32:12.901Z,99.90
2019-04-11T20:34:42.345Z,99.90
2019-04-11T20:37:13.714Z,99.90
2019-04-11T20:39:46.270Z,99.90
2019-04-11T20:42:17.159Z,99.90
2019-04-11T20:44:46.376Z,99.90
2019-04-11T20:47:16.876Z,99.90
2019-04-11T20:49:49.388Z,99.90
2019-04-11T20:52:18.743Z,99.90
2019-04-11T20:54:48.172Z,99.90
2019-04-11T20:57:25.555Z,99.90
2019-04-11T20:59:50.460Z,99.90
2019-04-11T21:02:19.745Z,99.90
2019-04-11T21:04:49.119Z,99.90
2019-04-11T21:07:18.427Z,99.90
2019-04-11T21:09:48.067Z,99.90
2019-04-11T21:12:18.061Z,99.90
2019-04-11T21:14:47.316Z,99.90
2019-04-11T21:17:16.670Z,99.90
2019-04-11T21:19:46.036Z,99.90
2019-04-11T21:22:15.267Z,99.90
2019-04-11T21:24:44.620Z,99.90
2019-04-11T21:27:14.015Z,99.90
2019-04-11T21:29:43.320Z,99.90
2019-04-11T21:32:14.109Z,99.90
2019-04-11T21:34:44.400Z,99.90
2019-04-11T21:37:14.113Z,99.90
2019-04-11T21:39:43.456Z,99.90
2019-04-11T21:42:13.576Z,99.90
2019-04-11T21:44:43.121Z,99.90
2019-04-11T21:47:12.767Z,99.90
2019-04-11T21:49:42.015Z,99.90
2019-04-11T21:52:12.288Z,99.90
2019-04-11T21:54:45.111Z,99.90
2019-04-11T21:57:18.434Z,99.90
2019-04-11T21:59:51.188Z,99.90
2019-04-11T22:02:18.120Z,99.90
2019-04-11T22:04:47.742Z,99.90
2019-04-11T22:07:17.205Z,99.90
2019-04-11T22:09:46.696Z,99.90
2019-04-11T22:12:16.133Z,99.90
2019-04-11T22:14:45.466Z,99.90
2019-04-11T22:17:16.132Z,99.90
2019-04-11T22:19:46.431Z,99.90
2019-04-11T22:22:15.888Z,99.90
2019-04-11T22:24:46.234Z,99.90
2019-04-11T22:27:16.900Z,99.90
2019-04-11T22:29:46.222Z,99.90
2019-04-11T22:32:16.775Z,99.90
2019-04-11T22:34:47.216Z,99.90
2019-04-11T22:37:16.501Z,99.90
2019-04-11T22:39:46.975Z,99.90
2019-04-11T22:42:16.664Z,99.90
2019-04-11T22:44:46.103Z,99.90
2019-04-11T22:47:15.720Z,99.90
2019-04-11T22:49:45.257Z,99.90
2019-04-11T22:52:15.128Z,99.90
2019-04-11T22:54:44.504Z,99.90
2019-04-11T22:57:16.507Z,99.90
2019-04-11T22:59:45.350Z,99.90
2019-04-11T23:02:24.172Z,99.90
2019-04-11T23:04:53.481Z,99.90
2019-04-11T23:07:22.856Z,99.90
2019-04-11T23:09:52.367Z,99.90
2019-04-11T23:12:21.727Z,99.90
2019-04-11T23:14:51.668Z,99.90
2019-04-11T23:17:21.167Z,99.90
2019-04-11T23:19:50.432Z,99.90
2019-04-11T23:22:19.904Z,99.90
2019-04-11T23:24:49.332Z,99.90
2019-04-11T23:27:19.016Z,99.90
2019-04-11T23:29:48.253Z,99.90
2019-04-11T23:32:18.846Z,99.90
2019-04-11T23:34:49.835Z,99.90
2019-04-11T23:37:21.150Z,99.90
2019-04-11T23:39:51.185Z,99.90
2019-04-11T23:42:21.134Z,99.90
2019-04-11T23:44:51.097Z,99.90
2019-04-11T23:47:23.021Z,99.90
2019-04-11T23:49:54.923Z,99.90
2019-04-11T23:52:26.255Z,99.90
2019-04-11T23:54:53.600Z,99.90
2019-04-11T23:57:22.979Z,99.90
2019-04-11T23:59:52.354Z,99.90
